Airfield :
LOGIN :

Register | Disclaimer

   EN    FR    IT 

 










Legend :    VFR   Marginal VFR   IFR   Intensive IFR   Very Intensive IFR
Visi :
Ceiling :
>= 8 km
>= 3000ft
5 to 8 km
1000 to 3000 ft
1500m to 5 km
500 to 1000 ft
800 to 1500m
200 to 500 ft
< 800m
< 200 ft
Symbols :   Thunderstorms  Fog  Heavy snow  Heavy precipitations  Wind > 20 kt
SIGMETs :     Misc.  Thunderstorms  Icing  Turbulence  Mountain Waves  Volcanic Ashes






- Airport Elevation : -15 ft
- IATA code : RTM


EHRD - Rotterdam Zestienhoven

CURRENT METAR :
  • 290855Z AUTO 03021G31KT 360V070 9999 FEW048 07/M04 Q1031 NOSIG

EXPIRED METARs :
  • 290825Z AUTO 03018KT 360V070 9999 FEW031 SCT036 06/M01 Q1031 NOSIG
  • 290755Z AUTO 02016KT 340V060 9999 FEW041 06/M01 Q1031 NOSIG
  • 290725Z AUTO 03015KT 350V060 9999 NSC 06/01 Q1030 NOSIG
  • 290655Z AUTO 01013KT 320V050 9999 NSC 06/00 Q1030 NOSIG

TAF TAF EHRD
Valid from the 29 at 06:00 until the 30 at 12:00 UTC


290500Z 2906/3012 36013KT 9999 SCT030
BECMG 2906/2909 03022G35KT
BECMG 2916/2919 03015G28KT CAVOK
BECMG 2919/2922 36007KT
PROB40
TEMPO 3008/3012 7000 -SHRA -RA FEW020CB BKN030
BECMG 3009/3012 34012KT SCT025



MET'MAP, your aeronautical weather chart ! - Copyright ORBIFLY December 2007 - Disclaimer

ORBIFLY MET'MAP TEAM :

Programming & Development : Alexandra Zaïnal
Concept & original design : Baudouin d'Aumeries
Assistance for programming : Marc-Olivier Méhu
Technical & hardware support : Manuel Goepfert

Contact : metmap@orbifly.com




SOURCES & CREDITS :

   NOAA